createdAt,value
2019-01-16T00:00:41.390Z,1005.85
2019-01-16T00:01:41.985Z,1005.88
2019-01-16T00:02:42.581Z,1005.84
2019-01-16T00:03:43.180Z,1005.85
2019-01-16T00:04:43.777Z,1005.84
2019-01-16T00:05:44.372Z,1005.82
2019-01-16T00:06:44.968Z,1005.83
2019-01-16T00:07:45.567Z,1005.90
2019-01-16T00:08:46.160Z,1005.81
2019-01-16T00:09:46.746Z,1005.82
2019-01-16T00:10:47.339Z,1005.82
2019-01-16T00:11:47.936Z,1005.83
2019-01-16T00:12:48.531Z,1005.82
2019-01-16T00:13:49.124Z,1005.85
2019-01-16T00:14:49.715Z,1005.83
2019-01-16T00:15:50.320Z,1005.82
2019-01-16T00:16:50.907Z,1005.86
2019-01-16T00:17:51.496Z,1005.85
2019-01-16T00:18:52.081Z,1005.77
2019-01-16T00:19:52.678Z,1005.76
2019-01-16T00:20:53.274Z,1005.79
2019-01-16T00:21:53.874Z,1005.78
2019-01-16T00:22:54.448Z,1005.79
2019-01-16T00:23:55.045Z,1005.69
2019-01-16T00:24:55.640Z,1005.71
2019-01-16T00:25:56.242Z,1005.70
2019-01-16T00:26:56.834Z,1005.66
2019-01-16T00:27:57.430Z,1005.64
2019-01-16T00:28:58.030Z,1005.64
2019-01-16T00:29:58.622Z,1005.64
2019-01-16T00:30:59.213Z,1005.63
2019-01-16T00:31:59.804Z,1005.63
2019-01-16T00:33:00.398Z,1005.60
2019-01-16T00:34:00.997Z,1005.63
2019-01-16T00:35:01.595Z,1005.63
2019-01-16T00:36:02.192Z,1005.65
2019-01-16T00:37:02.786Z,1005.62
2019-01-16T00:38:03.373Z,1005.61
2019-01-16T00:39:03.969Z,1005.63
2019-01-16T00:40:04.565Z,1005.65
2019-01-16T00:41:05.158Z,1005.63
2019-01-16T00:42:05.761Z,1005.63
2019-01-16T00:43:06.355Z,1005.60
2019-01-16T00:51:39.789Z,1005.49
2019-01-16T00:52:40.379Z,1005.59
2019-01-16T00:53:40.978Z,1005.57
2019-01-16T00:54:41.565Z,1005.57
2019-01-16T00:55:42.185Z,1005.58
2019-01-16T00:56:42.762Z,1005.57
2019-01-16T00:57:43.339Z,1005.58
2019-01-16T00:58:43.941Z,1005.57
2019-01-16T00:59:44.539Z,1005.54
2019-01-16T01:00:45.150Z,1005.53
2019-01-16T01:01:45.752Z,1005.53
2019-01-16T01:02:46.351Z,1005.50
2019-01-16T01:03:46.935Z,1005.53
2019-01-16T01:04:47.524Z,1005.48
2019-01-16T01:05:48.109Z,1005.46
2019-01-16T01:06:48.705Z,1005.49
2019-01-16T01:07:49.302Z,1005.47
2019-01-16T01:08:49.891Z,1005.47
2019-01-16T01:09:50.487Z,1005.46
2019-01-16T01:10:51.081Z,1005.42
2019-01-16T01:11:51.689Z,1005.48
2019-01-16T01:12:52.274Z,1005.42
2019-01-16T01:13:52.872Z,1005.41
2019-01-16T01:14:53.460Z,1005.41
2019-01-16T01:15:54.058Z,1005.38
2019-01-16T01:16:54.650Z,1005.37
2019-01-16T01:17:55.242Z,1005.31
2019-01-16T01:18:55.834Z,1005.29
2019-01-16T01:19:56.431Z,1005.29
2019-01-16T01:20:57.024Z,1005.32
2019-01-16T01:21:57.621Z,1005.32
2019-01-16T01:22:58.219Z,1005.30
2019-01-16T01:23:58.814Z,1005.37
2019-01-16T01:24:59.399Z,1005.34
2019-01-16T01:25:59.997Z,1005.39
2019-01-16T01:27:00.590Z,1005.37
2019-01-16T01:28:01.177Z,1005.38
2019-01-16T01:29:01.774Z,1005.39
2019-01-16T01:30:02.372Z,1005.36
2019-01-16T01:31:02.971Z,1005.35
2019-01-16T01:32:03.577Z,1005.35
2019-01-16T01:33:04.159Z,1005.31
2019-01-16T01:34:04.748Z,1005.33
2019-01-16T01:35:05.344Z,1005.30
2019-01-16T01:36:05.936Z,1005.29
2019-01-16T01:37:06.526Z,1005.27
2019-01-16T01:38:07.118Z,1005.27
2019-01-16T01:39:07.713Z,1005.17
2019-01-16T01:40:08.318Z,1005.27
2019-01-16T01:41:08.896Z,1005.18
2019-01-16T01:42:09.492Z,1005.24
2019-01-16T01:43:10.086Z,1005.21
2019-01-16T01:44:10.684Z,1005.26
2019-01-16T01:45:11.278Z,1005.24
2019-01-16T01:46:11.868Z,1005.25
2019-01-16T01:47:12.463Z,1005.14
2019-01-16T01:48:13.051Z,1005.18
2019-01-16T01:49:13.644Z,1005.22
2019-01-16T01:50:14.243Z,1005.19
2019-01-16T01:51:14.831Z,1005.20
2019-01-16T01:52:15.417Z,1005.18
2019-01-16T01:53:16.014Z,1005.21
2019-01-16T01:54:16.603Z,1005.19
2019-01-16T01:55:17.200Z,1005.21
2019-01-16T01:56:17.794Z,1005.18
2019-01-16T01:57:19.736Z,1005.22
2019-01-16T01:58:18.981Z,1005.16
2019-01-16T01:59:19.574Z,1005.19
2019-01-16T02:00:20.173Z,1005.09
2019-01-16T02:01:20.771Z,1005.18
2019-01-16T02:02:21.362Z,1005.20
2019-01-16T02:03:21.957Z,1005.12
2019-01-16T02:04:22.556Z,1005.16
2019-01-16T02:05:23.151Z,1005.17
2019-01-16T02:06:23.743Z,1005.18
2019-01-16T02:07:24.339Z,1005.11
2019-01-16T02:08:24.937Z,1005.16
2019-01-16T02:09:25.554Z,1005.12
2019-01-16T02:10:26.132Z,1005.10
2019-01-16T02:11:26.719Z,1005.11
2019-01-16T02:12:27.314Z,1005.08
2019-01-16T02:13:27.903Z,1005.04
2019-01-16T02:14:28.502Z,1005.03
2019-01-16T02:15:29.098Z,1005.03
2019-01-16T02:16:29.684Z,1005.06
2019-01-16T02:17:30.284Z,1005.00
2019-01-16T02:18:30.896Z,1005.02
2019-01-16T02:19:31.466Z,1004.95
2019-01-16T02:20:32.063Z,1004.98
2019-01-16T02:21:32.658Z,1004.91
2019-01-16T02:22:33.252Z,1004.92
2019-01-16T02:23:33.847Z,1004.89
2019-01-16T02:24:34.442Z,1004.88
2019-01-16T02:25:35.030Z,1004.84
2019-01-16T02:26:35.625Z,1004.86
2019-01-16T02:27:36.237Z,1004.84
2019-01-16T02:28:36.811Z,1004.82
2019-01-16T02:29:37.414Z,1004.82
2019-01-16T02:30:38.005Z,1004.81
2019-01-16T02:31:38.601Z,1004.73
2019-01-16T02:32:39.201Z,1004.78
2019-01-16T02:33:39.791Z,1004.74
2019-01-16T02:34:40.379Z,1004.72
2019-01-16T02:35:40.972Z,1004.74
2019-01-16T02:36:41.573Z,1004.73
2019-01-16T02:37:42.173Z,1004.71
2019-01-16T02:38:42.778Z,1004.72
2019-01-16T02:39:43.362Z,1004.66
2019-01-16T02:40:43.954Z,1004.67
2019-01-16T02:41:44.542Z,1004.65
2019-01-16T02:42:45.130Z,1004.62
2019-01-16T02:43:45.739Z,1004.61
2019-01-16T02:44:46.314Z,1004.62
2019-01-16T02:45:46.910Z,1004.59
2019-01-16T02:46:47.501Z,1004.58
2019-01-16T02:47:48.099Z,1004.54
2019-01-16T02:48:55.868Z,1004.51
2019-01-16T02:49:50.271Z,1004.53
2019-01-16T02:50:50.861Z,1004.55
2019-01-16T02:51:51.458Z,1004.46
2019-01-16T02:52:52.056Z,1004.51
2019-01-16T02:53:52.651Z,1004.39
2019-01-16T02:54:53.240Z,1004.37
2019-01-16T02:55:53.835Z,1004.26
2019-01-16T02:56:54.428Z,1004.30
2019-01-16T02:57:55.025Z,1004.34
2019-01-16T02:58:55.620Z,1004.31
2019-01-16T02:59:56.215Z,1004.28
2019-01-16T03:00:56.812Z,1004.24
2019-01-16T03:01:57.409Z,1004.32
2019-01-16T03:02:58.008Z,1004.34
2019-01-16T03:03:58.665Z,1004.27
2019-01-16T03:04:59.198Z,1004.25
2019-01-16T03:05:59.789Z,1004.25
2019-01-16T03:07:00.375Z,1004.29
2019-01-16T03:08:00.966Z,1004.26
2019-01-16T03:09:01.557Z,1004.25
2019-01-16T03:10:02.152Z,1004.17
2019-01-16T03:11:02.750Z,1004.03
2019-01-16T03:12:03.346Z,1004.20
2019-01-16T03:13:03.938Z,1004.17
2019-01-16T03:14:04.536Z,1004.18
2019-01-16T03:15:05.138Z,1004.18
2019-01-16T03:16:05.728Z,1004.21
2019-01-16T03:17:06.323Z,1004.26
2019-01-16T03:18:06.919Z,1004.21
2019-01-16T03:19:07.508Z,1004.24
2019-01-16T03:20:08.100Z,1004.24
2019-01-16T03:21:08.690Z,1004.25
2019-01-16T03:22:09.287Z,1004.22
2019-01-16T03:23:09.881Z,1004.21
2019-01-16T03:24:10.479Z,1004.18
2019-01-16T03:25:11.070Z,1004.20
2019-01-16T03:26:11.670Z,1004.18
2019-01-16T03:27:12.267Z,1004.18
2019-01-16T03:28:12.862Z,1004.16
2019-01-16T03:29:13.461Z,1004.15
2019-01-16T03:30:14.058Z,1004.13
2019-01-16T03:31:14.658Z,1004.11
2019-01-16T03:32:15.270Z,1004.10
2019-01-16T03:33:15.847Z,1003.96
2019-01-16T03:34:16.440Z,1003.98
2019-01-16T03:35:17.031Z,1003.99
2019-01-16T03:36:17.623Z,1003.93
2019-01-16T03:37:18.216Z,1003.90
2019-01-16T03:38:18.813Z,1003.92
2019-01-16T03:39:19.404Z,1003.86
2019-01-16T03:40:19.992Z,1003.80
2019-01-16T03:41:20.587Z,1003.85
2019-01-16T03:42:21.186Z,1003.83
2019-01-16T03:43:21.793Z,1003.85
2019-01-16T03:44:22.373Z,1003.88
2019-01-16T03:45:22.972Z,1003.80
2019-01-16T03:46:23.567Z,1003.77
2019-01-16T03:47:24.160Z,1003.86
2019-01-16T03:48:24.761Z,1003.83
2019-01-16T03:49:25.375Z,1003.79
2019-01-16T03:50:25.946Z,1003.80
2019-01-16T03:51:26.531Z,1003.77
2019-01-16T03:52:27.127Z,1003.78
2019-01-16T03:53:27.723Z,1003.79
2019-01-16T03:54:28.315Z,1003.77
2019-01-16T03:55:28.904Z,1003.70
2019-01-16T03:56:29.494Z,1003.73
2019-01-16T03:57:30.088Z,1003.72
2019-01-16T03:58:30.682Z,1003.65
2019-01-16T03:59:31.280Z,1003.66
2019-01-16T04:00:31.882Z,1003.62
2019-01-16T04:01:32.464Z,1003.65
2019-01-16T04:02:33.133Z,1003.66
2019-01-16T04:03:33.647Z,1003.61
2019-01-16T04:04:34.245Z,1003.57
2019-01-16T04:05:34.832Z,1003.57
2019-01-16T04:06:35.426Z,1003.54
2019-01-16T04:07:36.021Z,1003.54
2019-01-16T04:08:36.618Z,1003.50
2019-01-16T04:09:37.206Z,1003.57
2019-01-16T04:10:37.799Z,1003.57
2019-01-16T04:11:38.401Z,1003.55
2019-01-16T04:12:38.992Z,1003.50
2019-01-16T04:13:39.598Z,1003.50
2019-01-16T04:14:40.186Z,1003.48
2019-01-16T04:15:40.771Z,1003.45
2019-01-16T04:16:41.372Z,1003.50
2019-01-16T04:17:41.956Z,1003.48
2019-01-16T04:18:42.545Z,1003.53
2019-01-16T04:19:43.134Z,1003.45
2019-01-16T04:20:43.730Z,1003.38
2019-01-16T04:21:44.323Z,1003.43
2019-01-16T04:22:44.918Z,1003.41
2019-01-16T04:23:45.518Z,1003.38
2019-01-16T04:24:46.111Z,1003.37
2019-01-16T04:25:46.904Z,1003.35
2019-01-16T04:26:47.488Z,1003.41
2019-01-16T04:27:48.082Z,1003.39
2019-01-16T04:28:48.671Z,1003.42
2019-01-16T04:29:49.263Z,1003.39
2019-01-16T04:30:49.851Z,1003.34
2019-01-16T04:31:50.454Z,1003.36
2019-01-16T04:32:51.053Z,1003.34
2019-01-16T04:33:51.646Z,1003.30
2019-01-16T04:34:52.239Z,1003.21
2019-01-16T04:35:52.839Z,1003.21
2019-01-16T04:36:53.438Z,1003.26
2019-01-16T04:37:54.024Z,1003.22
2019-01-16T04:38:54.621Z,1003.25
2019-01-16T04:39:55.216Z,1003.18
2019-01-16T04:40:55.807Z,1003.18
2019-01-16T04:41:56.400Z,1003.19
2019-01-16T04:42:56.988Z,1003.16
2019-01-16T04:43:57.583Z,1003.11
2019-01-16T04:44:58.178Z,1003.10
2019-01-16T04:45:58.768Z,1003.14
2019-01-16T04:46:59.361Z,1003.13
2019-01-16T04:47:59.958Z,1003.19
2019-01-16T04:49:00.544Z,1003.10
2019-01-16T04:50:01.140Z,1003.13
2019-01-16T04:51:01.733Z,1003.11
2019-01-16T04:52:02.328Z,1003.11
2019-01-16T04:53:02.924Z,1003.13
2019-01-16T04:54:03.512Z,1003.11
2019-01-16T04:55:04.110Z,1003.16
2019-01-16T04:56:04.702Z,1003.07
2019-01-16T04:57:05.297Z,1003.12
2019-01-16T04:58:05.899Z,1003.11
2019-01-16T04:59:06.478Z,1003.08
2019-01-16T05:00:07.071Z,1003.10
2019-01-16T05:01:07.669Z,1003.09
2019-01-16T05:02:08.261Z,1003.00
2019-01-16T05:03:08.847Z,1003.08
2019-01-16T05:04:09.433Z,1003.07
2019-01-16T05:05:10.027Z,1002.95
2019-01-16T05:06:10.626Z,1003.01
2019-01-16T05:07:11.220Z,1003.02
2019-01-16T05:08:11.816Z,1003.00
2019-01-16T05:09:12.404Z,1003.02
2019-01-16T05:10:12.998Z,1003.02
2019-01-16T05:11:13.598Z,1002.99
2019-01-16T05:12:14.204Z,1002.97
2019-01-16T05:13:14.788Z,1002.98
2019-01-16T05:14:15.389Z,1002.99
2019-01-16T05:15:15.986Z,1002.99
2019-01-16T05:16:16.583Z,1002.99
2019-01-16T05:17:17.178Z,1003.03
2019-01-16T05:18:17.773Z,1002.97
2019-01-16T05:19:18.371Z,1003.02
2019-01-16T05:20:18.965Z,1003.00
2019-01-16T05:21:19.561Z,1002.97
2019-01-16T05:22:20.157Z,1002.97
2019-01-16T05:23:20.744Z,1002.99
2019-01-16T05:24:21.357Z,1002.98
2019-01-16T05:25:21.934Z,1002.97
2019-01-16T05:26:22.521Z,1002.99
2019-01-16T05:27:23.107Z,1002.99
2019-01-16T05:28:23.719Z,1002.98
2019-01-16T05:29:24.294Z,1002.97
2019-01-16T05:30:24.883Z,1003.00
2019-01-16T05:31:25.479Z,1002.97
2019-01-16T05:32:26.070Z,1002.87
2019-01-16T05:33:26.666Z,1002.93
2019-01-16T05:34:27.265Z,1002.87
2019-01-16T05:35:27.865Z,1002.90
2019-01-16T05:36:28.460Z,1002.82
2019-01-16T05:37:29.047Z,1002.85
2019-01-16T05:38:29.642Z,1002.84
2019-01-16T05:39:30.236Z,1002.86
2019-01-16T05:40:30.833Z,1002.85
2019-01-16T05:41:31.429Z,1002.75
2019-01-16T05:42:32.025Z,1002.78
2019-01-16T05:43:32.611Z,1002.79
2019-01-16T05:44:33.212Z,1002.79
2019-01-16T05:45:33.801Z,1002.70
2019-01-16T05:46:34.390Z,1002.78
2019-01-16T05:47:34.980Z,1002.73
2019-01-16T05:48:35.571Z,1002.73
2019-01-16T05:49:36.159Z,1002.73
2019-01-16T05:50:36.758Z,1002.78
2019-01-16T05:51:37.352Z,1002.76
2019-01-16T05:52:37.949Z,1002.73
2019-01-16T05:53:38.545Z,1002.74
2019-01-16T05:54:39.133Z,1002.73
2019-01-16T05:55:39.722Z,1002.70
2019-01-16T05:56:40.318Z,1002.76
2019-01-16T05:57:40.908Z,1002.70
2019-01-16T05:58:41.504Z,1002.69
2019-01-16T05:59:42.101Z,1002.69
2019-01-16T06:00:42.689Z,1002.65
2019-01-16T06:01:43.283Z,1002.68
2019-01-16T06:02:43.873Z,1002.73
2019-01-16T06:03:44.458Z,1002.71
2019-01-16T06:04:45.046Z,1002.75
2019-01-16T06:05:45.638Z,1002.76
2019-01-16T06:06:46.232Z,1002.72
2019-01-16T06:07:46.825Z,1002.71
2019-01-16T06:08:47.418Z,1002.79
2019-01-16T06:09:48.003Z,1002.71
2019-01-16T06:10:48.599Z,1002.71
2019-01-16T06:11:49.189Z,1002.63
2019-01-16T06:12:49.782Z,1002.71
2019-01-16T06:13:50.378Z,1002.55
2019-01-16T06:14:50.974Z,1002.61
2019-01-16T06:15:51.568Z,1002.66
2019-01-16T06:16:52.167Z,1002.62
2019-01-16T06:17:52.765Z,1002.62
2019-01-16T06:18:53.360Z,1002.64
2019-01-16T06:19:54.246Z,1002.66
2019-01-16T06:20:54.549Z,1002.61
2019-01-16T06:21:55.147Z,1002.66
2019-01-16T06:22:55.742Z,1002.67
2019-01-16T06:23:56.341Z,1002.65
2019-01-16T06:24:56.941Z,1002.64
2019-01-16T06:25:57.529Z,1002.62
2019-01-16T06:26:58.126Z,1002.64
2019-01-16T06:27:58.714Z,1002.63
2019-01-16T06:28:59.309Z,1002.63
2019-01-16T06:29:59.910Z,1002.63
2019-01-16T06:31:00.510Z,1002.57
2019-01-16T06:32:01.092Z,1002.61
2019-01-16T06:33:01.704Z,1002.62
2019-01-16T06:34:02.288Z,1002.65
2019-01-16T06:35:02.882Z,1002.54
2019-01-16T06:36:03.478Z,1002.58
2019-01-16T06:37:04.072Z,1002.58
2019-01-16T06:38:04.665Z,1002.60
2019-01-16T06:39:05.255Z,1002.64
2019-01-16T06:40:05.843Z,1002.58
2019-01-16T06:41:06.427Z,1002.64
2019-01-16T06:42:07.023Z,1002.62
2019-01-16T06:43:07.620Z,1002.57
2019-01-16T06:44:08.218Z,1002.59
2019-01-16T06:45:08.806Z,1002.49
2019-01-16T06:46:09.403Z,1002.55
2019-01-16T06:47:09.991Z,1002.54
2019-01-16T06:48:10.583Z,1002.56
2019-01-16T06:49:11.180Z,1002.51
2019-01-16T06:50:16.508Z,1002.54
2019-01-16T06:51:12.369Z,1002.53
2019-01-16T06:52:12.964Z,1002.57
2019-01-16T06:53:13.551Z,1002.55
2019-01-16T06:54:14.147Z,1002.50
2019-01-16T06:55:14.748Z,1002.55
2019-01-16T06:56:15.339Z,1002.54
2019-01-16T06:57:15.937Z,1002.53
2019-01-16T06:58:16.533Z,1002.57
2019-01-16T06:59:17.117Z,1002.55
2019-01-16T07:00:18.169Z,1002.50
2019-01-16T07:01:18.751Z,1002.50
2019-01-16T07:02:19.396Z,1002.49
2019-01-16T07:03:19.983Z,1002.46
2019-01-16T07:04:20.587Z,1002.47
2019-01-16T07:05:21.195Z,1002.43
2019-01-16T07:06:21.789Z,1002.50
2019-01-16T07:07:22.385Z,1002.49
2019-01-16T07:08:22.974Z,1002.48
2019-01-16T07:09:23.571Z,1002.52
2019-01-16T07:10:24.166Z,1002.52
2019-01-16T07:11:24.762Z,1002.51
2019-01-16T07:12:25.860Z,1002.52
2019-01-16T07:13:26.448Z,1002.58
2019-01-16T07:14:27.049Z,1002.67
2019-01-16T07:15:27.640Z,1002.57
2019-01-16T07:16:28.228Z,1002.59
2019-01-16T07:17:28.824Z,1002.55
2019-01-16T07:18:29.420Z,1002.54
2019-01-16T07:19:30.018Z,1002.59
2019-01-16T07:20:31.424Z,1002.58
2019-01-16T07:21:31.203Z,1002.56
2019-01-16T07:22:31.795Z,1002.58
2019-01-16T07:23:32.388Z,1002.60
2019-01-16T07:24:32.989Z,1002.57
2019-01-16T07:25:33.588Z,1002.55
2019-01-16T07:26:34.184Z,1002.63
2019-01-16T07:27:34.772Z,1002.56
2019-01-16T07:28:35.370Z,1002.53
2019-01-16T07:29:35.968Z,1002.56
2019-01-16T07:30:36.567Z,1002.55
2019-01-16T07:31:37.160Z,1002.67
2019-01-16T07:32:37.758Z,1002.68
2019-01-16T07:33:38.347Z,1002.69
2019-01-16T07:34:38.945Z,1002.69
2019-01-16T07:35:39.549Z,1002.65
2019-01-16T07:36:40.138Z,1002.62
2019-01-16T07:37:40.728Z,1002.63
2019-01-16T07:38:41.322Z,1002.65
2019-01-16T07:39:41.920Z,1002.63
2019-01-16T07:40:42.514Z,1002.64
2019-01-16T07:41:43.116Z,1002.58
2019-01-16T07:42:46.979Z,1002.57
2019-01-16T07:43:44.306Z,1002.57
2019-01-16T07:44:44.901Z,1002.64
2019-01-16T07:45:45.495Z,1002.58
2019-01-16T07:46:46.093Z,1002.55
2019-01-16T07:47:46.682Z,1002.56
2019-01-16T07:48:47.280Z,1002.59
2019-01-16T07:49:47.877Z,1002.59
2019-01-16T07:50:48.477Z,1002.60
2019-01-16T07:51:49.077Z,1002.60
2019-01-16T07:52:49.676Z,1002.62
2019-01-16T07:53:50.275Z,1002.62
2019-01-16T07:54:50.865Z,1002.65
2019-01-16T07:55:51.456Z,1002.68
2019-01-16T07:56:52.101Z,1002.68
2019-01-16T07:57:52.698Z,1002.67
2019-01-16T07:58:53.290Z,1002.66
2019-01-16T07:59:53.894Z,1002.68
2019-01-16T08:00:54.490Z,1002.61
2019-01-16T08:01:55.081Z,1002.60
2019-01-16T08:02:55.681Z,1002.59
2019-01-16T08:03:56.279Z,1002.57
2019-01-16T08:04:56.872Z,1002.60
2019-01-16T08:05:57.471Z,1002.56
2019-01-16T08:06:58.064Z,1002.62
2019-01-16T08:07:58.656Z,1002.61
2019-01-16T08:08:59.249Z,1002.60
2019-01-16T08:09:59.852Z,1002.63
2019-01-16T08:11:00.457Z,1002.65
2019-01-16T08:12:01.049Z,1002.64
2019-01-16T08:13:01.647Z,1002.73
2019-01-16T08:14:02.252Z,1002.75
2019-01-16T08:15:02.843Z,1002.73
2019-01-16T08:16:03.439Z,1002.67
2019-01-16T08:17:04.073Z,1002.68
2019-01-16T08:18:04.638Z,1002.74
2019-01-16T08:19:05.238Z,1002.69
2019-01-16T08:20:05.842Z,1002.73
2019-01-16T08:21:06.442Z,1002.69
2019-01-16T08:22:07.041Z,1002.66
2019-01-16T08:23:07.630Z,1002.63
2019-01-16T08:24:08.257Z,1002.64
2019-01-16T08:25:08.832Z,1002.67
2019-01-16T08:26:09.436Z,1002.64
2019-01-16T08:27:10.039Z,1002.68
2019-01-16T08:28:10.645Z,1002.60
2019-01-16T08:29:11.402Z,1002.67
2019-01-16T08:30:11.993Z,1002.65
2019-01-16T08:31:12.597Z,1002.73
2019-01-16T08:32:13.206Z,1002.69
2019-01-16T08:33:13.839Z,1002.68
2019-01-16T08:34:14.671Z,1002.63
2019-01-16T08:35:15.634Z,1002.65
2019-01-16T08:36:16.503Z,1002.67
2019-01-16T08:37:17.429Z,1002.62
2019-01-16T08:38:17.958Z,1002.62
2019-01-16T08:39:18.880Z,1002.58
2019-01-16T08:40:19.954Z,1002.55
2019-01-16T08:41:20.995Z,1002.60
2019-01-16T08:42:21.879Z,1002.60
2019-01-16T08:43:22.839Z,1002.61
2019-01-16T08:44:23.669Z,1002.68
2019-01-16T08:45:24.304Z,1002.75
2019-01-16T08:46:24.908Z,1002.63
2019-01-16T08:47:25.761Z,1002.65
2019-01-16T08:48:26.363Z,1002.63
2019-01-16T08:49:27.125Z,1002.66
2019-01-16T08:50:32.453Z,1002.64
2019-01-16T08:51:29.285Z,1002.67
2019-01-16T08:52:30.115Z,1002.66
2019-01-16T08:53:31.219Z,1002.66
2019-01-16T08:54:32.046Z,1002.64
2019-01-16T08:55:32.671Z,1002.69
2019-01-16T08:56:33.278Z,1002.67
2019-01-16T08:57:34.030Z,1002.64
2019-01-16T08:58:34.657Z,1002.65
2019-01-16T08:59:35.244Z,1002.60
2019-01-16T09:00:36.104Z,1002.60
2019-01-16T09:01:36.976Z,1002.59
2019-01-16T09:02:37.592Z,1002.61
2019-01-16T09:03:38.194Z,1002.61
2019-01-16T09:04:38.791Z,1002.64
2019-01-16T09:05:39.385Z,1002.64
2019-01-16T09:06:39.985Z,1002.57
2019-01-16T09:07:40.583Z,1002.52
2019-01-16T09:08:41.187Z,1002.57
2019-01-16T09:09:41.783Z,1002.50
2019-01-16T09:10:42.375Z,1002.52
2019-01-16T09:11:43.150Z,1002.52
2019-01-16T09:12:43.564Z,1002.50
2019-01-16T09:13:44.158Z,1002.50
2019-01-16T09:14:44.770Z,1002.43
2019-01-16T09:15:45.368Z,1002.43
2019-01-16T09:16:45.967Z,1002.45
2019-01-16T09:17:46.565Z,1002.38
2019-01-16T09:18:47.163Z,1002.37
2019-01-16T09:19:47.765Z,1002.32
2019-01-16T09:20:48.369Z,1002.28
2019-01-16T09:21:48.960Z,1002.28
2019-01-16T09:22:49.571Z,1002.26
2019-01-16T09:23:50.155Z,1002.17
2019-01-16T09:24:50.746Z,1002.22
2019-01-16T09:25:51.350Z,1002.22
2019-01-16T09:26:51.951Z,1002.18
2019-01-16T09:27:52.557Z,1002.16
2019-01-16T09:28:53.150Z,1002.11
2019-01-16T09:29:53.750Z,1002.18
2019-01-16T09:30:54.345Z,1002.12
2019-01-16T09:31:54.973Z,1002.13
2019-01-16T09:32:55.547Z,1002.12
2019-01-16T09:33:56.150Z,1002.12
2019-01-16T09:34:56.743Z,1002.13
2019-01-16T09:35:57.337Z,1002.13
2019-01-16T09:36:57.950Z,1002.12
2019-01-16T09:37:58.552Z,1002.10
2019-01-16T09:38:59.150Z,1002.11
2019-01-16T09:39:59.751Z,1002.08
2019-01-16T09:41:00.350Z,1002.09
2019-01-16T09:42:00.953Z,1002.10
2019-01-16T09:43:01.554Z,1002.08
2019-01-16T09:44:02.153Z,1002.03
2019-01-16T09:45:02.749Z,1002.07
2019-01-16T09:46:03.348Z,1002.01
2019-01-16T09:47:03.942Z,1002.06
2019-01-16T09:48:04.548Z,1002.05
2019-01-16T09:49:05.153Z,1002.03
2019-01-16T09:50:05.747Z,1002.04
2019-01-16T09:51:06.346Z,1002.04
2019-01-16T09:52:06.945Z,1001.94
2019-01-16T09:53:07.552Z,1002.01
2019-01-16T09:54:08.161Z,1001.97
2019-01-16T09:55:08.763Z,1001.90
2019-01-16T09:56:09.364Z,1001.97
2019-01-16T09:57:09.967Z,1001.96
2019-01-16T09:58:10.571Z,1001.99
2019-01-16T09:59:11.172Z,1001.88
2019-01-16T10:00:11.769Z,1001.82
2019-01-16T10:01:12.375Z,1001.80
2019-01-16T10:02:12.976Z,1001.77
2019-01-16T10:03:13.579Z,1001.76
2019-01-16T10:04:14.381Z,1001.78
2019-01-16T10:05:14.973Z,1001.76
2019-01-16T10:06:15.570Z,1001.86
2019-01-16T10:07:16.173Z,1001.84
2019-01-16T10:08:16.774Z,1001.78
2019-01-16T10:09:17.362Z,1001.77
2019-01-16T10:10:17.955Z,1001.86
2019-01-16T10:11:18.556Z,1001.73
2019-01-16T10:12:19.154Z,1001.76
2019-01-16T10:13:19.757Z,1001.81
2019-01-16T10:14:20.356Z,1001.82
2019-01-16T10:15:20.955Z,1001.84
2019-01-16T10:16:21.563Z,1001.80
2019-01-16T10:17:22.204Z,1001.83
2019-01-16T10:18:22.804Z,1001.79
2019-01-16T10:19:23.422Z,1001.72
2019-01-16T10:20:24.009Z,1001.76
2019-01-16T10:21:24.619Z,1001.74
2019-01-16T10:22:25.220Z,1001.70
2019-01-16T10:23:25.817Z,1001.66
2019-01-16T10:24:26.418Z,1001.65
2019-01-16T10:25:27.018Z,1001.61
2019-01-16T10:26:27.609Z,1001.58
2019-01-16T10:27:28.210Z,1001.55
2019-01-16T10:28:28.808Z,1001.58
2019-01-16T10:29:29.416Z,1001.56
2019-01-16T10:30:30.006Z,1001.57
2019-01-16T10:31:30.602Z,1001.56
2019-01-16T10:32:31.203Z,1001.53
2019-01-16T10:33:31.808Z,1001.52
2019-01-16T10:34:32.445Z,1001.54
2019-01-16T10:35:33.044Z,1001.47
2019-01-16T10:36:33.649Z,1001.42
2019-01-16T10:37:34.253Z,1001.47
2019-01-16T10:38:34.846Z,1001.36
2019-01-16T10:39:35.444Z,1001.51
2019-01-16T10:40:36.048Z,1001.47
2019-01-16T10:41:36.650Z,1001.39
2019-01-16T10:42:37.247Z,1001.39
2019-01-16T10:43:37.845Z,1001.34
2019-01-16T10:44:38.450Z,1001.35
2019-01-16T10:45:39.048Z,1001.34
2019-01-16T10:46:39.648Z,1001.34
2019-01-16T10:47:40.243Z,1001.32
2019-01-16T10:48:40.846Z,1001.30
2019-01-16T10:49:41.447Z,1001.25
2019-01-16T10:50:42.039Z,1001.26
2019-01-16T10:51:42.649Z,1001.08
2019-01-16T10:52:43.246Z,1001.25
2019-01-16T10:53:43.849Z,1001.23
2019-01-16T10:54:44.451Z,1001.17
2019-01-16T10:55:45.053Z,1001.18
2019-01-16T10:56:45.660Z,1001.18
2019-01-16T10:57:46.270Z,1001.18
2019-01-16T10:58:46.865Z,1001.14
2019-01-16T10:59:47.464Z,1001.05
2019-01-16T11:00:48.058Z,1001.06
2019-01-16T11:01:48.652Z,1001.00
2019-01-16T11:02:49.252Z,1001.00
2019-01-16T11:03:49.852Z,1000.99
2019-01-16T11:04:50.459Z,1000.91
2019-01-16T11:05:51.060Z,1000.89
2019-01-16T11:06:51.661Z,1000.87
2019-01-16T11:07:52.265Z,1000.84
2019-01-16T11:08:52.862Z,1000.85
2019-01-16T11:09:53.464Z,1000.71
2019-01-16T11:10:54.067Z,1000.80
2019-01-16T11:11:54.671Z,1000.76
2019-01-16T11:12:55.274Z,1000.80
2019-01-16T11:13:55.872Z,1000.75
2019-01-16T11:14:56.465Z,1000.64
2019-01-16T11:15:57.067Z,1000.70
2019-01-16T11:16:57.677Z,1000.66
2019-01-16T11:17:58.275Z,1000.59
2019-01-16T11:18:58.879Z,1000.62
2019-01-16T11:19:59.482Z,1000.61
2019-01-16T11:21:00.084Z,1000.55
2019-01-16T11:22:00.681Z,1000.60
2019-01-16T11:23:01.281Z,1000.54
2019-01-16T11:24:01.892Z,1000.55
2019-01-16T11:25:02.485Z,1000.49
2019-01-16T11:26:03.079Z,1000.42
2019-01-16T11:27:03.689Z,1000.35
2019-01-16T11:28:04.290Z,1000.40
2019-01-16T11:29:04.887Z,1000.39
2019-01-16T11:30:05.492Z,1000.33
2019-01-16T11:31:06.095Z,1000.36
2019-01-16T11:32:06.695Z,1000.32
2019-01-16T11:33:07.349Z,1000.34
2019-01-16T11:34:07.952Z,1000.32
2019-01-16T11:35:08.598Z,1000.50
2019-01-16T11:36:09.192Z,1000.41
2019-01-16T11:37:09.797Z,1000.39
2019-01-16T11:38:10.400Z,1000.32
2019-01-16T11:39:11.003Z,1000.27
2019-01-16T11:40:11.594Z,1000.30
2019-01-16T11:41:12.190Z,1000.20
2019-01-16T11:42:12.784Z,1000.22
2019-01-16T11:43:13.398Z,1000.29
2019-01-16T11:44:13.991Z,1000.18
2019-01-16T11:45:14.593Z,1000.07
2019-01-16T11:46:15.202Z,1000.14
2019-01-16T11:47:15.805Z,1000.20
2019-01-16T11:48:16.406Z,1000.05
2019-01-16T11:49:17.010Z,1000.14
2019-01-16T11:50:17.611Z,1000.21
2019-01-16T11:51:18.854Z,1000.14
2019-01-16T11:52:18.815Z,1000.01
2019-01-16T11:53:19.417Z,1000.03
2019-01-16T11:54:20.018Z,999.97
2019-01-16T11:55:20.615Z,999.94
2019-01-16T11:56:21.209Z,999.98
2019-01-16T11:57:21.808Z,999.96
2019-01-16T11:58:22.404Z,999.91
2019-01-16T11:59:22.997Z,999.86
2019-01-16T12:00:23.591Z,999.84
2019-01-16T12:01:24.188Z,999.93
2019-01-16T12:02:24.788Z,999.90
2019-01-16T12:03:25.381Z,999.94
2019-01-16T12:04:25.980Z,999.91
2019-01-16T12:05:26.581Z,999.87
2019-01-16T12:06:27.175Z,999.84
2019-01-16T12:07:27.772Z,999.89
2019-01-16T12:08:28.365Z,999.77
2019-01-16T12:09:28.961Z,999.79
2019-01-16T12:10:29.553Z,999.75
2019-01-16T12:11:30.169Z,999.74
2019-01-16T12:12:30.758Z,999.78
2019-01-16T12:13:31.378Z,999.67
2019-01-16T12:14:31.983Z,999.67
2019-01-16T12:15:32.581Z,999.68
2019-01-16T12:16:33.191Z,999.64
2019-01-16T12:17:33.826Z,999.58
2019-01-16T12:18:34.415Z,999.48
2019-01-16T12:19:34.997Z,999.59
2019-01-16T12:20:35.598Z,999.48
2019-01-16T12:21:36.196Z,999.49